Time;durP1;ratioP1;P1;durP2;ratioP2;P2;SDS_P1;SDS_P2;PMS_P1;PMS_P2;Temp;Humidity;BMP_temperature;BMP_pressure;BME280_temperature;BME280_humidity;BME280_pressure;Samples;Min_cycle;Max_cycle;Signal;HPM_P1;HPM_P2
2021/12/15 00:01:05;;;;;;;31.65;8.98;;;;;;;18.69;56.77;102838.16;5012666;28;20026;-68
2021/12/15 00:03:30;;;;;;;31.75;9.43;;;;;;;18.67;56.70;102838.28;5013520;28;20046;-68
2021/12/15 00:05:56;;;;;;;30.88;8.40;;;;;;;18.65;56.85;102848.03;5013182;28;20028;-68
2021/12/15 00:08:21;;;;;;;30.70;9.45;;;;;;;18.64;56.69;102845.47;5012579;28;20117;-68
2021/12/15 00:10:48;;;;;;;38.10;10.77;;;;;;;18.63;56.60;102851.72;5012978;28;20030;-68
2021/12/15 00:13:16;;;;;;;35.13;9.38;;;;;;;18.62;56.82;102847.34;5013482;28;20056;-68
2021/12/15 00:15:43;;;;;;;35.38;9.80;;;;;;;18.62;56.33;102839.44;5012192;28;20521;-68
2021/12/15 00:18:09;;;;;;;36.25;9.65;;;;;;;18.58;56.54;102838.75;5013274;28;20097;-68
2021/12/15 00:20:35;;;;;;;31.77;9.25;;;;;;;18.58;56.72;102836.09;5013611;28;20029;-68
2021/12/15 00:23:02;;;;;;;33.47;8.63;;;;;;;18.57;56.53;102834.38;5012581;28;20037;-67
2021/12/15 00:25:31;;;;;;;34.30;9.05;;;;;;;18.56;56.44;102831.81;5013835;28;20075;-68
2021/12/15 00:27:57;;;;;;;35.10;9.98;;;;;;;18.54;56.61;102831.06;5013875;28;20129;-68
2021/12/15 00:30:22;;;;;;;28.88;8.38;;;;;;;18.53;56.49;102832.81;5013266;28;20051;-68
2021/12/15 00:32:49;;;;;;;36.10;9.77;;;;;;;18.52;56.72;102835.53;5013419;28;20018;-68
2021/12/15 00:35:15;;;;;;;30.13;9.70;;;;;;;18.50;56.72;102827.72;5013420;28;20030;-68
2021/12/15 00:37:47;;;;;;;36.22;9.43;;;;;;;18.49;56.97;102832.13;5012497;28;20044;-68
2021/12/15 00:40:16;;;;;;;31.77;8.85;;;;;;;18.47;56.69;102828.72;5013636;28;20030;-68
2021/12/15 00:42:44;;;;;;;37.08;9.45;;;;;;;18.47;56.56;102836.66;5012971;28;20426;-68
2021/12/15 00:45:10;;;;;;;30.77;9.25;;;;;;;18.45;56.61;102822.69;5012819;28;20053;-68
2021/12/15 00:47:38;;;;;;;35.28;9.38;;;;;;;18.42;56.44;102827.25;5013825;28;20025;-68
2021/12/15 00:50:07;;;;;;;35.75;10.13;;;;;;;18.43;56.53;102826.31;5012638;28;20025;-68
2021/12/15 00:52:41;;;;;;;34.70;9.70;;;;;;;18.41;56.65;102821.13;5013678;28;20057;-68
2021/12/15 00:55:10;;;;;;;31.23;9.02;;;;;;;18.41;56.78;102829.03;5013409;28;20389;-68
2021/12/15 00:57:36;;;;;;;32.55;8.98;;;;;;;18.41;56.68;102825.56;5012266;28;20086;-68
2021/12/15 01:00:06;;;;;;;38.47;10.02;;;;;;;18.39;56.70;102824.75;5012558;28;20434;-68
2021/12/15 01:02:33;;;;;;;34.65;10.13;;;;;;;18.39;56.50;102830.91;5012652;28;20112;-68
2021/12/15 01:04:58;;;;;;;30.63;8.07;;;;;;;18.36;56.73;102820.50;5012125;28;20034;-68
2021/12/15 01:07:24;;;;;;;38.38;10.05;;;;;;;18.37;56.86;102824.00;5013673;28;20539;-69
2021/12/15 01:09:56;;;;;;;39.60;9.65;;;;;;;18.36;56.88;102830.19;5012612;28;20046;-68
2021/12/15 01:20:47;;;;;;;32.53;9.10;;;;;;;18.31;56.70;102838.38;5012390;28;20040;-68
2021/12/15 01:23:16;;;;;;;37.20;10.05;;;;;;;18.31;56.56;102846.28;5012536;28;20038;-68
2021/12/15 01:26:22;;;;;;;37.90;9.27;;;;;;;18.30;56.67;102840.13;5011388;28;20072;-68
2021/12/15 01:28:47;;;;;;;30.38;9.73;;;;;;;18.28;56.52;102846.44;5012659;28;20041;-67
2021/12/15 01:31:16;;;;;;;31.90;10.68;;;;;;;18.28;56.48;102841.16;5012278;28;20523;-67
2021/12/15 01:33:42;;;;;;;35.90;8.82;;;;;;;18.27;56.61;102836.81;5011233;28;20040;-67
2021/12/15 01:36:09;;;;;;;34.58;8.98;;;;;;;18.26;56.50;102838.59;5012247;28;20030;-67
2021/12/15 01:38:37;;;;;;;30.88;10.40;;;;;;;18.25;56.71;102833.41;5012435;28;20038;-67
2021/12/15 01:41:04;;;;;;;37.28;8.98;;;;;;;18.25;56.37;102836.03;5011503;28;20070;-67
2021/12/15 01:49:15;;;;;;;32.22;9.85;;;;;;;18.23;56.53;102851.06;5012536;28;20445;-68
2021/12/15 01:51:42;;;;;;;33.95;9.05;;;;;;;18.20;56.56;102836.25;5012024;28;20095;-68
2021/12/15 01:54:08;;;;;;;31.83;9.25;;;;;;;18.21;56.44;102839.75;5011720;28;20048;-68
2021/12/15 01:56:37;;;;;;;27.75;8.82;;;;;;;18.19;56.66;102838.97;5015874;28;20054;-68
2021/12/15 01:59:04;;;;;;;33.42;9.70;;;;;;;18.19;56.37;102839.81;5015464;28;20080;-68
2021/12/15 02:01:30;;;;;;;35.17;9.43;;;;;;;18.19;56.73;102839.81;5015088;28;20134;-68
2021/12/15 02:03:56;;;;;;;31.33;9.05;;;;;;;18.20;56.51;102846.81;5015154;28;20113;-69
2021/12/15 02:06:25;;;;;;;35.72;10.18;;;;;;;18.18;56.64;102846.03;5015689;28;20394;-68
2021/12/15 02:08:51;;;;;;;39.45;10.38;;;;;;;18.18;56.40;102853.09;5014611;28;20025;-68
2021/12/15 02:11:17;;;;;;;33.63;9.02;;;;;;;18.17;56.42;102854.03;5015471;28;20038;-68
2021/12/15 02:13:42;;;;;;;36.50;10.60;;;;;;;18.16;56.34;102861.09;5015043;28;20382;-68
2021/12/15 02:16:08;;;;;;;37.72;9.60;;;;;;;18.13;56.33;102862.13;5014873;28;20037;-68
2021/12/15 02:18:37;;;;;;;35.47;10.55;;;;;;;18.15;56.52;102862.03;5015132;28;20069;-69
2021/12/15 02:21:09;;;;;;;31.50;10.23;;;;;;;18.16;56.29;102870.81;5014854;28;20030;-68
2021/12/15 02:23:42;;;;;;;33.30;9.15;;;;;;;18.13;56.40;102862.13;5014538;28;20119;-68
2021/12/15 02:26:14;;;;;;;38.03;9.65;;;;;;;18.13;56.56;102863.88;5015434;28;20072;-68
2021/12/15 02:28:41;;;;;;;33.40;9.55;;;;;;;18.12;56.48;102867.47;5014366;28;20485;-68
2021/12/15 02:33:52;;;;;;;32.65;9.57;;;;;;;18.11;56.14;102868.38;5015257;28;20033;-68
2021/12/15 02:39:06;;;;;;;26.17;8.95;;;;;;;18.10;56.52;102862.25;5014764;28;20041;-68
2021/12/15 02:41:33;;;;;;;35.80;9.95;;;;;;;18.08;56.44;102858.81;5015073;28;20036;-68
2021/12/15 02:44:12;;;;;;;34.78;9.27;;;;;;;18.08;56.41;102864.09;5013814;28;20034;-68
2021/12/15 02:46:38;;;;;;;38.05;9.55;;;;;;;18.08;56.50;102866.75;5015027;28;20030;-68
2021/12/15 02:49:09;;;;;;;33.67;9.70;;;;;;;18.06;56.39;102863.34;5014437;28;20030;-68
2021/12/15 02:51:38;;;;;;;28.55;9.45;;;;;;;18.06;56.57;102857.22;5014174;28;20018;-68
2021/12/15 02:54:06;;;;;;;37.42;10.07;;;;;;;18.05;56.29;102864.25;5014517;28;20087;-68
2021/12/15 02:56:32;;;;;;;30.38;9.40;;;;;;;18.06;56.07;102863.34;5014802;28;20038;-68
2021/12/15 02:59:01;;;;;;;33.15;9.77;;;;;;;18.04;56.16;102867.84;5013862;28;20038;-68
2021/12/15 03:01:38;;;;;;;34.60;10.23;;;;;;;18.04;56.16;102862.56;5014510;28;20026;-67
2021/12/15 03:06:44;;;;;;;33.78;9.15;;;;;;;18.04;56.20;102859.91;5013602;28;20455;-67
2021/12/15 03:17:38;;;;;;;30.70;9.47;;;;;;;18.00;56.33;102850.44;5014501;28;20115;-68
2021/12/15 03:20:13;;;;;;;31.45;9.18;;;;;;;18.00;56.37;102855.72;5013506;28;20030;-68
2021/12/15 03:22:38;;;;;;;38.83;11.25;;;;;;;18.00;56.05;102857.50;5014143;28;20466;-68
2021/12/15 03:25:05;;;;;;;33.17;9.60;;;;;;;18.00;56.28;102852.22;5013362;28;20030;-68
2021/12/15 03:35:59;;;;;;;31.85;8.88;;;;;;;17.97;56.04;102850.59;5013686;28;20057;-67
2021/12/15 03:38:25;;;;;;;36.13;9.43;;;;;;;17.97;56.10;102852.38;5014115;28;20091;-67
2021/12/15 03:40:54;;;;;;;29.73;9.90;;;;;;;17.97;56.02;102850.59;5012724;28;20477;-67
2021/12/15 03:43:20;;;;;;;34.78;10.48;;;;;;;17.96;56.39;102854.16;5013618;28;20050;-68
2021/12/15 03:45:56;;;;;;;31.88;9.18;;;;;;;17.97;56.26;102857.66;5013557;28;20026;-68
2021/12/15 03:48:27;;;;;;;35.70;9.65;;;;;;;17.96;56.21;102864.72;5014030;28;20377;-68
2021/12/15 03:50:56;;;;;;;32.55;9.32;;;;;;;17.95;55.99;102855.94;5013447;28;20104;-67
2021/12/15 03:53:21;;;;;;;37.05;9.20;;;;;;;17.95;56.27;102863.84;5012935;28;20025;-67
2021/12/15 03:55:47;;;;;;;37.25;9.35;;;;;;;17.94;56.06;102864.81;5013250;28;20157;-67
2021/12/15 03:58:15;;;;;;;36.30;9.45;;;;;;;17.94;56.17;102870.06;5013810;28;20506;-68
2021/12/15 04:00:45;;;;;;;34.38;9.40;;;;;;;17.95;56.23;102868.28;5012376;28;20556;-68
2021/12/15 04:03:30;;;;;;;33.60;9.60;;;;;;;17.92;55.92;102871.91;5013377;28;20527;-68
2021/12/15 04:05:56;;;;;;;;;;;;;;;17.92;56.24;102871.91;5013661;28;20113;-68
2021/12/15 04:08:22;;;;;;;26.77;7.80;;;;;;;17.92;56.16;102874.53;5012810;28;19924;-68
2021/12/15 04:10:49;;;;;;;32.50;8.63;;;;;;;17.92;55.97;102876.34;5013241;28;20045;-68
2021/12/15 04:13:14;;;;;;;32.65;8.88;;;;;;;17.91;56.04;102869.34;5013537;28;20034;-68
2021/12/15 04:15:44;;;;;;;29.75;8.95;;;;;;;17.91;55.93;102872.84;5012277;28;20021;-68
2021/12/15 04:18:11;;;;;;;34.63;8.88;;;;;;;17.91;56.28;102871.97;5013000;28;20050;-69
2021/12/15 04:20:41;;;;;;;30.33;8.88;;;;;;;17.89;56.06;102872.06;5013001;28;20469;-69
2021/12/15 04:23:31;;;;;;;31.92;8.48;;;;;;;17.90;56.18;102880.84;5012530;28;20065;-68
2021/12/15 04:26:00;;;;;;;30.40;8.68;;;;;;;17.89;55.91;102874.69;5012847;28;20033;-68
2021/12/15 04:28:35;;;;;;;37.42;9.10;;;;;;;17.89;55.92;102882.59;5012444;28;20065;-66
2021/12/15 04:31:05;;;;;;;34.90;9.70;;;;;;;17.90;56.55;102888.75;5012891;28;20029;-69
2021/12/15 04:33:46;;;;;;;32.63;9.23;;;;;;;17.89;57.09;102889.69;5013170;28;20022;-67
2021/12/15 04:36:14;;;;;;;34.40;9.43;;;;;;;17.91;57.09;102887.81;5012546;28;20033;-68
2021/12/15 04:38:41;;;;;;;38.22;9.60;;;;;;;17.93;57.20;102885.97;5012661;28;20029;-68
2021/12/15 04:41:11;;;;;;;31.80;8.80;;;;;;;17.96;57.07;102899.03;5012833;28;20093;-68
2021/12/15 04:43:40;;;;;;;44.78;9.15;;;;;;;17.98;56.83;102885.75;5011955;28;20401;-68
2021/12/15 04:46:08;;;;;;;38.47;9.63;;;;;;;18.02;57.10;102887.31;5013060;28;20112;-68
2021/12/15 04:48:35;;;;;;;43.90;9.35;;;;;;;18.03;56.94;102889.88;5012806;28;20045;-69
2021/12/15 04:51:01;;;;;;;36.55;9.48;;;;;;;18.04;56.98;102890.72;5011761;28;20072;-68
2021/12/15 04:53:26;;;;;;;36.20;8.90;;;;;;;18.07;56.66;102896.72;5012710;28;20026;-68
2021/12/15 04:55:52;;;;;;;40.22;10.05;;;;;;;18.08;56.53;102900.19;5012317;28;20105;-68
2021/12/15 04:58:18;;;;;;;32.50;8.60;;;;;;;18.08;56.47;102895.75;5012070;28;20030;-68
2021/12/15 05:00:50;;;;;;;38.03;9.30;;;;;;;18.10;56.41;102904.47;5012647;28;20033;-68
2021/12/15 05:03:15;;;;;;;43.05;9.82;;;;;;;18.11;56.32;102902.69;5012034;28;20493;-67
2021/12/15 05:05:41;;;;;;;31.38;9.50;;;;;;;18.11;56.30;102908.81;5012420;28;20030;-68
2021/12/15 05:08:07;;;;;;;35.63;9.82;;;;;;;18.11;56.18;102902.69;5012630;28;20032;-68
2021/12/15 05:10:33;;;;;;;40.15;9.57;;;;;;;18.12;56.03;102909.69;5011669;28;20044;-68
2021/12/15 05:12:59;;;;;;;37.30;11.35;;;;;;;18.12;56.34;102902.63;5012270;28;20320;-68
2021/12/15 05:15:27;;;;;;;35.72;9.40;;;;;;;18.13;56.07;102903.47;5012634;28;20022;-68
2021/12/15 05:17:52;;;;;;;41.38;9.90;;;;;;;18.12;55.96;102894.69;5011479;28;20495;-68
2021/12/15 05:20:18;;;;;;;35.40;10.02;;;;;;;18.13;56.33;102906.09;5012651;28;20057;-68
2021/12/15 05:22:43;;;;;;;36.65;8.95;;;;;;;18.12;56.06;102907.06;5012115;28;20026;-68
2021/12/15 05:25:10;;;;;;;37.22;8.68;;;;;;;18.11;56.09;102907.97;5011821;28;20018;-68
2021/12/15 05:27:36;;;;;;;41.13;9.13;;;;;;;18.11;56.27;102916.72;5012651;28;20026;-68
2021/12/15 05:30:04;;;;;;;35.28;9.75;;;;;;;18.12;56.06;102917.59;5013951;28;20034;-68
2021/12/15 05:32:29;;;;;;;35.55;9.02;;;;;;;18.11;56.15;102915.88;5015407;28;20025;-68
2021/12/15 05:34:59;;;;;;;29.92;8.38;;;;;;;18.11;56.27;102924.66;5016010;28;20101;-68
2021/12/15 05:37:25;;;;;;;35.10;8.90;;;;;;;18.11;56.24;102916.72;5016136;28;20405;-68
2021/12/15 05:39:53;;;;;;;34.20;9.05;;;;;;;18.13;56.46;102919.28;5014906;28;20022;-67
2021/12/15 05:42:20;;;;;;;39.70;8.88;;;;;;;18.13;56.44;102917.53;5016115;28;20037;-68
2021/12/15 05:44:47;;;;;;;34.78;8.75;;;;;;;18.15;56.72;102922.72;5015934;28;20036;-68
2021/12/15 05:47:14;;;;;;;36.45;8.93;;;;;;;18.15;56.52;102925.38;5015348;28;20026;-68
2021/12/15 05:49:40;;;;;;;47.15;10.07;;;;;;;18.17;56.78;102917.38;5015832;28;20042;-68
2021/12/15 05:52:08;;;;;;;41.40;9.88;;;;;;;18.17;56.49;102920.03;5015988;28;20035;-68
2021/12/15 05:54:35;;;;;;;36.47;9.07;;;;;;;18.18;56.40;102924.34;5015168;28;20034;-68
2021/12/15 05:57:00;;;;;;;41.33;9.10;;;;;;;18.18;56.15;102922.56;5015479;28;20041;-68
2021/12/15 05:59:26;;;;;;;40.05;8.82;;;;;;;18.19;56.26;102918.16;5015517;28;20037;-68
2021/12/15 06:01:52;;;;;;;38.00;10.10;;;;;;;18.19;56.42;102919.00;5015564;28;20125;-68
2021/12/15 06:04:21;;;;;;;38.13;8.27;;;;;;;18.20;56.15;102925.13;5015567;28;20132;-68
2021/12/15 06:06:46;;;;;;;38.75;9.60;;;;;;;18.20;56.06;102925.13;5014718;28;20114;-69
2021/12/15 06:09:12;;;;;;;39.97;9.35;;;;;;;18.20;56.65;102922.47;5015743;28;20026;-67
2021/12/15 06:11:39;;;;;;;41.40;9.50;;;;;;;18.22;57.01;102918.84;5015755;28;20034;-68
2021/12/15 06:14:05;;;;;;;41.97;9.30;;;;;;;18.23;56.72;102917.94;5014870;28;20034;-68
2021/12/15 06:16:31;;;;;;;35.53;8.75;;;;;;;18.26;56.97;102922.19;5015679;28;20034;-67
2021/12/15 06:18:56;;;;;;;34.55;9.13;;;;;;;18.28;56.97;102925.63;5015027;28;20050;-67
2021/12/15 06:21:22;;;;;;;37.35;8.57;;;;;;;18.29;56.88;102919.41;5014647;28;20044;-69
2021/12/15 06:23:48;;;;;;;39.80;10.18;;;;;;;18.31;56.92;102928.97;5015096;28;20034;-67
2021/12/15 06:26:14;;;;;;;30.13;7.38;;;;;;;18.32;56.55;102927.16;5015360;28;20037;-68
2021/12/15 06:28:39;;;;;;;33.53;8.40;;;;;;;18.34;56.60;102935.88;5014021;28;20488;-67
2021/12/15 06:31:08;;;;;;;35.60;7.90;;;;;;;18.36;56.58;102931.38;5015200;28;20113;-68
2021/12/15 06:33:34;;;;;;;36.25;7.90;;;;;;;18.38;56.36;102937.44;5015201;28;20108;-67
2021/12/15 06:36:02;;;;;;;34.00;7.43;;;;;;;18.40;56.36;102938.19;5013957;28;20053;-67
2021/12/15 06:38:34;;;;;;;31.13;7.55;;;;;;;18.40;56.05;102935.56;5015225;28;20030;-68
2021/12/15 06:41:00;;;;;;;29.05;7.22;;;;;;;18.43;56.03;102938.03;5013372;28;20026;-67
2021/12/15 06:43:26;;;;;;;29.83;7.78;;;;;;;18.45;56.10;102930.06;5014105;28;20038;-68
2021/12/15 06:59:21;;;;;;;28.50;7.63;;;;;;;18.54;55.71;102949.88;5020203;28;20104;-68
2021/12/15 07:01:52;;;;;;;33.22;7.30;;;;;;;18.54;55.54;102948.09;5014507;28;20466;-68
2021/12/15 07:04:19;;;;;;;31.33;7.32;;;;;;;18.57;55.71;102952.38;5014033;28;20026;-68
2021/12/15 07:06:45;;;;;;;28.13;6.82;;;;;;;18.57;55.61;102950.56;5014288;28;20353;-67
2021/12/15 07:09:11;;;;;;;27.17;6.38;;;;;;;18.58;55.67;102957.56;5014422;28;20104;-67
2021/12/15 07:11:42;;;;;;;28.02;6.65;;;;;;;18.59;55.38;102959.25;5013555;28;20113;-68
2021/12/15 07:14:09;;;;;;;28.77;6.63;;;;;;;18.61;55.57;102964.47;5014537;28;20080;-68
2021/12/15 07:16:38;;;;;;;25.88;6.30;;;;;;;18.61;55.58;102965.34;5014255;28;20021;-68
2021/12/15 07:19:15;;;;;;;25.80;6.85;;;;;;;18.63;55.52;102967.91;5013227;28;20449;-68
2021/12/15 07:21:51;;;;;;;24.60;6.50;;;;;;;18.64;55.53;102966.97;5013868;28;20061;-69
2021/12/15 07:24:16;;;;;;;24.80;5.97;;;;;;;18.67;55.46;102972.97;5014837;28;20034;-65
2021/12/15 07:26:41;;;;;;;31.08;8.55;;;;;;;18.79;55.37;102968.84;5015751;28;20083;-66
2021/12/15 07:29:06;;;;;;;26.93;7.73;;;;;;;18.95;55.44;102968.09;5014657;28;20022;-67
2021/12/15 07:31:32;;;;;;;34.17;7.32;;;;;;;19.09;55.08;102970.88;5013871;28;20033;-69
2021/12/15 07:33:57;;;;;;;36.92;8.52;;;;;;;19.25;54.94;102975.34;5015278;28;20417;-72
2021/12/15 07:36:22;;;;;;;29.33;7.50;;;;;;;19.35;54.65;102981.88;5014792;28;20045;-67
2021/12/15 07:38:47;;;;;;;33.55;8.15;;;;;;;19.40;54.69;102975.38;5014388;28;20366;-67
2021/12/15 07:41:32;;;;;;;33.75;7.90;;;;;;;19.49;54.20;102968.78;5014867;28;20034;-67
2021/12/15 07:44:02;;;;;;;;;;;;;;;19.55;54.20;102973.72;5014572;28;20195;-68
2021/12/15 07:46:33;;;;;;;32.00;7.57;;;;;;;19.60;54.28;102970.84;5013434;28;19932;-67
2021/12/15 07:48:59;;;;;;;38.78;8.50;;;;;;;19.62;54.03;102976.88;5013748;28;20065;-66
2021/12/15 07:51:24;;;;;;;36.33;8.38;;;;;;;19.60;53.90;102976.13;5015544;28;20108;-66
2021/12/15 07:53:50;;;;;;;35.58;8.45;;;;;;;19.63;53.89;102980.38;5012416;28;20038;-67
2021/12/15 07:56:16;;;;;;;34.75;7.63;;;;;;;19.63;53.63;102972.44;5014196;28;20034;-71
2021/12/15 07:58:42;;;;;;;36.85;8.70;;;;;;;19.64;54.10;102980.28;5015263;28;20037;-66
2021/12/15 08:01:08;;;;;;;37.38;8.80;;;;;;;19.67;53.76;102979.28;5013554;28;20666;-64
2021/12/15 08:03:36;;;;;;;38.05;9.27;;;;;;;19.70;53.69;102979.97;5014241;28;20030;-65
2021/12/15 08:06:05;;;;;;;34.22;8.55;;;;;;;19.72;53.47;102983.38;5013448;28;20026;-67
2021/12/15 08:08:58;;;;;;;33.00;9.13;;;;;;;19.73;53.43;102977.16;5014089;28;20076;-65
2021/12/15 08:11:23;;;;;;;26.42;7.70;;;;;;;19.75;53.46;102979.72;5014268;28;20040;-64
2021/12/15 08:13:49;;;;;;;36.15;9.63;;;;;;;19.75;53.37;102993.78;5012599;28;20455;-66
2021/12/15 08:16:15;;;;;;;31.42;9.07;;;;;;;19.76;53.35;102989.41;5013550;28;20042;-68
2021/12/15 08:18:41;;;;;;;31.88;8.20;;;;;;;19.77;53.46;102996.38;5013238;28;20117;-68
2021/12/15 08:21:09;;;;;;;29.23;8.35;;;;;;;19.76;53.39;102992.06;5012886;28;20429;-66
2021/12/15 08:23:35;;;;;;;31.75;9.13;;;;;;;19.76;53.44;102989.41;5013339;28;20068;-63
2021/12/15 08:26:03;;;;;;;34.05;8.85;;;;;;;19.75;53.60;102988.50;5014270;28;20026;-67
2021/12/15 08:28:29;;;;;;;36.17;9.15;;;;;;;19.75;53.26;102990.31;5013369;28;20034;-68
2021/12/15 08:30:55;;;;;;;32.70;9.10;;;;;;;19.74;53.00;102992.09;5013407;28;20109;-69
2021/12/15 08:33:22;;;;;;;29.75;8.15;;;;;;;19.77;53.36;102996.38;5014135;28;20026;-67
2021/12/15 08:35:57;;;;;;;36.35;10.02;;;;;;;19.77;53.41;102995.53;5013004;28;20029;-67
2021/12/15 08:38:29;;;;;;;39.88;9.60;;;;;;;19.73;53.35;102994.84;5014078;28;20059;-69
2021/12/15 08:41:00;;;;;;;34.50;9.30;;;;;;;19.65;53.32;102997.88;5013823;28;20029;-68
2021/12/15 08:43:26;;;;;;;33.25;8.52;;;;;;;19.61;53.15;103006.91;5013175;28;20041;-67
2021/12/15 08:45:59;;;;;;;32.65;8.38;;;;;;;19.56;53.21;102985.16;5018283;28;20026;-66
2021/12/15 08:48:28;;;;;;;30.98;8.90;;;;;;;19.58;53.13;102994.72;5020128;28;20540;-63
2021/12/15 08:54:14;;;;;;;32.10;10.63;;;;;;;19.65;52.85;102997.88;5016990;28;20476;-65
2021/12/15 08:56:47;;;;;;;27.67;8.38;;;;;;;19.64;52.14;102998.81;5022150;28;20042;-65
2021/12/15 08:59:13;;;;;;;20.15;7.70;;;;;;;19.61;52.04;102991.03;5022109;28;20034;-65
2021/12/15 09:01:39;;;;;;;27.95;8.07;;;;;;;19.57;51.89;102986.88;5012787;28;20022;-65
2021/12/15 09:04:05;;;;;;;24.30;8.27;;;;;;;19.56;51.93;103012.44;5011984;28;20030;-66
2021/12/15 09:06:31;;;;;;;20.00;7.65;;;;;;;19.56;51.86;103009.81;5017168;28;20079;-68
2021/12/15 09:08:56;;;;;;;18.13;7.50;;;;;;;19.56;51.69;103009.81;5016878;28;20052;-68
2021/12/15 09:11:25;;;;;;;22.30;7.68;;;;;;;19.54;51.74;103013.47;5016337;28;20061;-68
2021/12/15 09:13:52;;;;;;;21.80;7.57;;;;;;;19.55;51.58;103008.09;5016765;28;20029;-68
2021/12/15 09:16:19;;;;;;;22.60;7.15;;;;;;;19.54;51.57;103018.78;5016847;28;20033;-67
2021/12/15 09:18:47;;;;;;;24.05;7.68;;;;;;;19.53;51.57;103017.91;5015702;28;20046;-66
2021/12/15 09:21:18;;;;;;;18.33;7.22;;;;;;;19.54;51.69;103021.41;5017119;28;20464;-70
2021/12/15 09:23:44;;;;;;;20.88;6.72;;;;;;;19.57;52.07;103023.91;5015628;28;20164;-64
2021/12/15 09:26:09;;;;;;;19.17;6.93;;;;;;;19.60;52.00;103028.16;5016782;28;20502;-66
2021/12/15 09:28:35;;;;;;;21.23;7.60;;;;;;;19.58;51.77;103030.88;5017047;28;20025;-68
2021/12/15 09:31:01;;;;;;;15.63;6.88;;;;;;;19.61;51.82;103032.50;5015917;28;20029;-64
2021/12/15 09:33:30;;;;;;;17.20;7.15;;;;;;;19.64;51.80;103033.19;5016729;28;20022;-67
2021/12/15 09:35:57;;;;;;;17.02;7.72;;;;;;;19.62;51.64;103044.81;5016047;28;20029;-67
2021/12/15 09:38:23;;;;;;;16.38;7.40;;;;;;;19.57;51.94;103039.78;5015625;28;20029;-67
2021/12/15 09:40:52;;;;;;;16.70;6.85;;;;;;;19.51;52.25;103048.88;5015963;28;20389;-66
2021/12/15 09:43:18;;;;;;;17.38;7.15;;;;;;;19.47;52.28;103038.53;5016032;28;20117;-65
2021/12/15 09:57:07;;;;;;;15.25;6.78;;;;;;;19.26;52.55;103041.34;4974779;28;20446;-64
2021/12/15 10:18:44;;;;;;;;;;;;;;;19.12;52.74;103052.66;5015640;28;20060;-65
2021/12/15 10:21:25;;;;;;;14.88;6.03;;;;;;;19.16;52.67;103050.69;5015241;28;19995;-64
2021/12/15 10:23:51;;;;;;;11.98;6.20;;;;;;;19.21;52.23;103049.50;5017102;28;20038;-65
2021/12/15 10:26:17;;;;;;;12.07;6.85;;;;;;;19.28;52.43;103050.09;5017482;28;20033;-65
2021/12/15 10:28:48;;;;;;;10.05;6.63;;;;;;;19.36;52.04;103044.41;5018985;28;20445;-65
2021/12/15 10:31:17;;;;;;;12.32;6.00;;;;;;;19.45;51.82;103046.53;5015611;28;20025;-65
2021/12/15 10:33:47;;;;;;;13.40;7.10;;;;;;;19.48;51.54;103046.38;5015082;28;20022;-65
2021/12/15 10:36:18;;;;;;;13.02;6.97;;;;;;;19.53;51.50;103052.28;5015485;28;20466;-66
2021/12/15 10:38:49;;;;;;;13.18;6.13;;;;;;;19.59;51.15;103051.13;5014941;28;20390;-65
2021/12/15 10:41:36;;;;;;;11.23;6.03;;;;;;;19.62;51.37;103044.81;5014340;28;20022;-65
2021/12/15 10:44:06;;;;;;;10.93;5.90;;;;;;;19.57;51.11;103045.91;5014552;28;20413;-65
2021/12/15 10:46:37;;;;;;;8.50;5.47;;;;;;;19.53;51.33;103043.50;5015161;28;20053;-65
2021/12/15 10:49:09;;;;;;;11.00;6.50;;;;;;;19.47;51.37;103051.75;5013765;28;20474;-68
2021/12/15 10:51:48;;;;;;;9.45;6.30;;;;;;;19.46;51.50;103050.91;5015256;28;20033;-65
2021/12/15 10:54:30;;;;;;;12.23;7.00;;;;;;;19.50;51.15;103055.13;5014856;28;20073;-65
2021/12/15 10:57:07;;;;;;;11.02;7.50;;;;;;;19.50;50.93;103057.75;5013948;28;20030;-63
2021/12/15 10:59:36;;;;;;;10.63;6.80;;;;;;;19.44;51.22;103059.84;5014896;28;20064;-63
2021/12/15 11:02:12;;;;;;;10.77;6.47;;;;;;;19.39;51.21;103055.66;5013472;28;20068;-63
2021/12/15 11:05:18;;;;;;;12.02;6.63;;;;;;;19.35;51.42;103058.53;5014458;28;20037;-63
2021/12/15 11:07:49;;;;;;;10.15;6.40;;;;;;;19.31;51.75;103057.84;5016680;28;20056;-63
2021/12/15 11:10:20;;;;;;;11.75;6.95;;;;;;;19.29;51.71;103054.41;5013718;28;20025;-63
2021/12/15 11:13:01;;;;;;;10.32;6.45;;;;;;;19.26;51.53;103040.50;5014293;28;20045;-63
2021/12/15 11:15:37;;;;;;;11.15;6.43;;;;;;;19.25;51.67;103046.72;5014305;28;20026;-63
2021/12/15 11:18:25;;;;;;;8.27;5.93;;;;;;;19.23;51.46;103048.59;5013024;28;20430;-63
2021/12/15 11:21:00;;;;;;;10.90;6.40;;;;;;;19.23;51.68;103044.16;5014032;28;20042;-64
2021/12/15 11:23:28;;;;;;;9.35;6.20;;;;;;;19.21;51.62;103043.38;5013300;28;20474;-63
2021/12/15 11:26:03;;;;;;;11.18;6.45;;;;;;;19.20;51.49;103046.94;5014114;28;20036;-64
2021/12/15 11:28:33;;;;;;;11.82;6.88;;;;;;;19.19;51.60;103046.09;5013619;28;20038;-65
2021/12/15 11:31:14;;;;;;;9.55;7.00;;;;;;;19.17;51.81;103045.34;5012930;28;20433;-63
2021/12/15 11:33:56;;;;;;;9.82;6.72;;;;;;;19.14;51.76;103040.22;5014228;28;20092;-63
2021/12/15 11:36:25;;;;;;;9.00;5.55;;;;;;;19.16;51.87;103043.63;5014071;28;20041;-63
2021/12/15 11:39:07;;;;;;;11.07;6.32;;;;;;;19.15;52.16;103041.06;5013177;28;20124;-61
2021/12/15 11:41:37;;;;;;;9.40;6.35;;;;;;;19.13;52.00;103041.13;5013872;28;20076;-63
2021/12/15 11:44:06;;;;;;;10.20;6.55;;;;;;;19.12;51.61;103039.44;5013576;28;20045;-63
2021/12/15 11:46:33;;;;;;;8.65;6.25;;;;;;;19.11;51.90;103042.16;5014376;28;20104;-64
2021/12/15 11:49:13;;;;;;;9.50;6.30;;;;;;;19.16;52.14;103043.63;5013822;28;20029;-64
2021/12/15 11:51:48;;;;;;;9.18;6.20;;;;;;;19.27;51.88;103042.22;5014251;28;20038;-64
2021/12/15 11:54:24;;;;;;;8.73;6.18;;;;;;;19.43;51.39;103035.19;5015468;28;20026;-64
2021/12/15 11:57:14;;;;;;;7.60;5.28;;;;;;;19.58;51.22;103037.03;5014136;28;20152;-62
2021/12/15 11:59:43;;;;;;;7.85;5.43;;;;;;;19.68;50.74;103036.56;5012625;28;20532;-66
2021/12/15 12:02:14;;;;;;;8.60;5.80;;;;;;;19.72;50.62;103031.00;5013721;28;20500;-66
2021/12/15 12:04:48;;;;;;;11.68;5.28;;;;;;;19.75;50.72;103032.63;5014471;28;20033;-66
2021/12/15 12:07:23;;;;;;;8.48;5.75;;;;;;;19.78;50.42;103027.22;5012915;28;20046;-66
2021/12/15 12:09:53;;;;;;;10.05;5.82;;;;;;;19.79;50.49;103026.28;5013765;28;20042;-64
2021/12/15 12:12:23;;;;;;;9.80;6.07;;;;;;;19.82;50.40;103028.78;5013183;28;20026;-65
2021/12/15 12:14:49;;;;;;;7.75;5.28;;;;;;;19.85;50.17;103020.66;5014068;28;20034;-68
2021/12/15 12:17:21;;;;;;;8.43;6.30;;;;;;;19.90;49.91;103018.63;5014619;28;20108;-68
2021/12/15 12:19:57;;;;;;;7.80;5.43;;;;;;;19.92;50.04;103010.59;5015588;28;20046;-68
2021/12/15 12:22:26;;;;;;;7.72;5.63;;;;;;;19.95;49.77;103013.06;5015888;28;20026;-69
2021/12/15 12:24:54;;;;;;;9.18;5.68;;;;;;;19.97;49.54;103008.53;5015685;28;20037;-69
2021/12/15 12:27:26;;;;;;;9.50;6.00;;;;;;;20.00;49.77;103016.31;5014893;28;20425;-68
2021/12/15 12:29:54;;;;;;;8.23;6.03;;;;;;;19.97;49.42;103018.28;5017472;28;20556;-67
2021/12/15 12:32:20;;;;;;;8.32;6.00;;;;;;;19.90;49.74;103017.75;5018285;28;20049;-65
2021/12/15 12:34:47;;;;;;;8.25;6.22;;;;;;;19.80;49.81;103009.44;5018052;28;20018;-63
2021/12/15 12:37:14;;;;;;;7.90;5.40;;;;;;;19.73;50.26;103008.91;5020336;28;20033;-66
2021/12/15 12:39:42;;;;;;;9.88;5.78;;;;;;;19.65;50.25;103003.19;5019046;28;20073;-66
2021/12/15 12:42:08;;;;;;;7.80;5.40;;;;;;;19.61;50.40;103009.56;5015421;28;20108;-66
2021/12/15 12:44:37;;;;;;;7.20;4.95;;;;;;;19.56;50.62;103008.97;5019290;28;20073;-66
2021/12/15 12:47:19;;;;;;;7.35;5.53;;;;;;;19.53;50.60;103011.75;5018534;28;20398;-66
2021/12/15 13:01:09;;;;;;;7.10;5.30;;;;;;;19.39;50.81;103000.13;5018074;28;20025;-66
2021/12/15 13:03:46;;;;;;;7.78;5.30;;;;;;;19.37;51.04;102994.06;5017028;28;20042;-66
2021/12/15 13:06:18;;;;;;;8.20;5.53;;;;;;;19.37;50.81;102995.84;5013512;28;20025;-67